Time;durP1;ratioP1;P1;durP2;ratioP2;P2;SDS_P1;SDS_P2;PMS_P1;PMS_P2;Temp;Humidity;BMP_temperature;BMP_pressure;BME280_temperature;BME280_humidity;BME280_pressure;Samples;Min_cycle;Max_cycle;Signal;HPM_P1;HPM_P2
2023/02/14 00:00:09;;;;;;;100.47;38.00;;;6.10;99.90;;;;;;5062653;28;20053;-74
2023/02/14 00:02:34;;;;;;;82.55;32.25;;;6.10;99.90;;;;;;5061460;28;20175;-74
2023/02/14 00:05:00;;;;;;;81.45;31.50;;;6.00;99.90;;;;;;5062939;28;20037;-75
2023/02/14 00:07:25;;;;;;;72.93;29.98;;;6.00;99.90;;;;;;5062929;28;20025;-73
2023/02/14 00:09:51;;;;;;;74.10;28.92;;;6.00;99.90;;;;;;5061435;28;20108;-74
2023/02/14 00:12:16;;;;;;;72.82;29.17;;;5.90;99.90;;;;;;5062871;28;20043;-74
2023/02/14 00:17:26;;;;;;;74.78;29.88;;;5.90;99.90;;;;;;5062677;28;20048;-74
2023/02/14 00:19:52;;;;;;;80.50;30.58;;;5.90;99.90;;;;;;5061240;28;20505;-73
2023/02/14 00:22:17;;;;;;;75.22;29.98;;;5.80;99.90;;;;;;5061557;28;20032;-74
2023/02/14 00:24:43;;;;;;;79.22;31.38;;;5.80;99.90;;;;;;5061303;28;20071;-73
2023/02/14 00:27:08;;;;;;;80.88;31.83;;;5.80;99.90;;;;;;5061342;28;20036;-73
2023/02/14 00:29:34;;;;;;;79.38;31.25;;;5.70;99.90;;;;;;5062484;28;20021;-74
2023/02/14 00:32:00;;;;;;;81.43;31.13;;;5.80;99.90;;;;;;5061119;28;20582;-73
2023/02/14 00:34:26;;;;;;;78.28;32.47;;;5.80;99.90;;;;;;5060163;28;20051;-73
2023/02/14 00:36:52;;;;;;;76.93;31.55;;;5.80;99.90;;;;;;5062573;28;20029;-74
2023/02/14 00:39:18;;;;;;;82.85;31.30;;;5.80;99.90;;;;;;5062184;28;20047;-73
2023/02/14 00:41:44;;;;;;;76.78;31.27;;;5.90;99.90;;;;;;5062262;28;20040;-74
2023/02/14 00:44:12;;;;;;;77.28;30.98;;;5.90;99.90;;;;;;5062292;28;20044;-74
2023/02/14 00:46:37;;;;;;;80.75;30.52;;;5.80;99.90;;;;;;5062332;28;20040;-74
2023/02/14 00:49:03;;;;;;;86.35;32.40;;;5.70;99.90;;;;;;5060792;28;20103;-74
2023/02/14 00:51:29;;;;;;;80.72;30.15;;;5.80;99.90;;;;;;5062087;28;20690;-74
2023/02/14 00:53:55;;;;;;;85.53;32.63;;;5.70;99.90;;;;;;5060638;28;20029;-74
2023/02/14 00:56:21;;;;;;;85.13;32.95;;;5.80;99.90;;;;;;5060734;28;20398;-74
2023/02/14 00:58:47;;;;;;;88.72;34.80;;;5.70;99.90;;;;;;5060161;28;20084;-73
2023/02/14 01:01:14;;;;;;;93.95;35.90;;;5.80;99.90;;;;;;5060742;28;20031;-75
2023/02/14 01:03:40;;;;;;;92.90;34.42;;;5.80;99.90;;;;;;5059922;28;20397;-74
2023/02/14 01:06:06;;;;;;;92.20;35.17;;;5.90;99.90;;;;;;5061784;28;20088;-74
2023/02/14 01:08:32;;;;;;;96.50;35.35;;;5.90;99.90;;;;;;5061764;28;20458;-74
2023/02/14 01:10:57;;;;;;;85.72;34.38;;;5.90;99.90;;;;;;5060258;28;20048;-74
2023/02/14 01:13:23;;;;;;;91.85;35.20;;;5.90;99.90;;;;;;5060306;28;20036;-73
2023/02/14 01:15:51;;;;;;;93.22;34.85;;;6.00;99.90;;;;;;5061687;28;20111;-75
2023/02/14 01:18:18;;;;;;;86.30;32.95;;;6.00;99.90;;;;;;5061391;28;20016;-75
2023/02/14 01:20:44;;;;;;;98.35;37.13;;;6.00;99.90;;;;;;5061691;28;20104;-74
2023/02/14 01:23:10;;;;;;;93.45;34.67;;;6.00;99.90;;;;;;5060028;28;20073;-75
2023/02/14 01:25:37;;;;;;;94.40;34.60;;;6.00;99.90;;;;;;5061521;28;20017;-74
2023/02/14 01:28:03;;;;;;;86.68;34.40;;;6.00;99.90;;;;;;5061305;28;20029;-73
2023/02/14 01:30:29;;;;;;;93.47;35.03;;;6.00;99.90;;;;;;5059943;28;20049;-73
2023/02/14 01:32:54;;;;;;;93.35;35.42;;;6.00;99.90;;;;;;5059912;28;20055;-73
2023/02/14 01:35:20;;;;;;;88.80;33.05;;;6.00;99.90;;;;;;5060288;28;20033;-73
2023/02/14 01:37:46;;;;;;;86.50;33.33;;;6.00;99.90;;;;;;5061329;28;20027;-73
2023/02/14 01:40:13;;;;;;;91.55;35.53;;;6.00;99.90;;;;;;5059901;28;20021;-73
2023/02/14 01:42:38;;;;;;;95.05;35.72;;;6.00;99.90;;;;;;5060150;28;20029;-74
2023/02/14 01:45:15;;;;;;;86.28;33.67;;;6.00;99.90;;;;;;5059768;28;20116;-74
2023/02/14 01:47:43;;;;;;;93.57;34.90;;;6.00;99.90;;;;;;5061327;28;20033;-73
2023/02/14 01:50:21;;;;;;;92.35;33.65;;;6.00;99.90;;;;;;5059377;28;20021;-74
2023/02/14 01:52:51;;;;;;;96.60;36.17;;;6.00;99.90;;;;;;5060844;28;20020;-73
2023/02/14 01:55:20;;;;;;;85.35;33.00;;;6.10;99.90;;;;;;5061031;28;20401;-74
2023/02/14 01:57:55;;;;;;;92.20;35.05;;;6.00;99.90;;;;;;5059174;28;20142;-74
2023/02/14 02:03:07;;;;;;;92.47;34.75;;;6.00;99.90;;;;;;5060690;28;20044;-74
2023/02/14 02:05:36;;;;;;;98.45;36.53;;;6.00;99.90;;;;;;5058615;28;20027;-75
2023/02/14 02:08:02;;;;;;;97.30;36.95;;;5.90;99.90;;;;;;5060934;28;20033;-74
2023/02/14 02:10:28;;;;;;;93.07;34.42;;;6.00;99.90;;;;;;5059170;28;20024;-73
2023/02/14 02:12:54;;;;;;;96.70;36.33;;;6.00;99.90;;;;;;5060674;28;20103;-74
2023/02/14 02:15:24;;;;;;;84.38;33.65;;;6.00;99.90;;;;;;5060701;28;20025;-75
2023/02/14 02:18:05;;;;;;;92.60;34.22;;;6.00;99.90;;;;;;5060214;28;20017;-75
2023/02/14 02:20:46;;;;;;;99.97;36.97;;;6.00;99.90;;;;;;5058698;28;20036;-73
2023/02/14 02:23:36;;;;;;;85.57;33.17;;;5.90;99.90;;;;;;5058484;28;20045;-74
2023/02/14 02:26:19;;;;;;;95.63;34.63;;;5.90;99.90;;;;;;5060254;28;20043;-73
2023/02/14 02:29:33;;;;;;;91.35;34.72;;;5.90;99.90;;;;;;5059254;28;20036;-74
2023/02/14 02:32:18;;;;;;;94.65;34.58;;;5.90;99.90;;;;;;5038156;28;20029;-74
2023/02/14 02:35:22;;;;;;;90.13;33.97;;;5.90;99.90;;;;;;5058886;28;20049;-74
2023/02/14 02:38:16;;;;;;;84.88;32.53;;;5.80;99.90;;;;;;5058856;28;20049;-74
2023/02/14 02:40:58;;;;;;;98.13;34.30;;;5.80;99.90;;;;;;5058628;28;20037;-73
2023/02/14 02:43:40;;;;;;;94.10;35.13;;;5.80;99.90;;;;;;5058737;28;20044;-74
2023/02/14 02:47:00;;;;;;;99.80;35.38;;;5.70;99.90;;;;;;5062666;28;20029;-74
2023/02/14 02:53:02;;;;;;;90.57;33.47;;;5.60;99.90;;;;;;5063312;28;20450;-74
2023/02/14 02:58:55;;;;;;;102.00;36.72;;;5.60;99.90;;;;;;5063685;28;20081;-76
2023/02/14 03:01:27;;;;;;;98.95;36.10;;;5.50;99.90;;;;;;5063107;28;20033;-75
2023/02/14 03:06:47;;;;;;;99.68;36.13;;;5.40;99.90;;;;;;5063100;28;20040;-73
2023/02/14 03:09:32;;;;;;;96.95;34.20;;;5.50;99.90;;;;;;5061829;28;20041;-75
2023/02/14 03:12:31;;;;;;;98.47;36.42;;;5.30;99.90;;;;;;5061474;28;20033;-73
2023/02/14 03:15:08;;;;;;;94.70;33.75;;;5.20;99.90;;;;;;5061088;28;20032;-72
2023/02/14 03:21:05;;;;;;;98.90;34.85;;;5.10;99.90;;;;;;5061898;28;20594;-73
2023/02/14 03:23:37;;;;;;;85.68;31.90;;;5.10;99.90;;;;;;5054194;28;20053;-73
2023/02/14 03:26:26;;;;;;;98.63;34.88;;;5.00;99.90;;;;;;5063015;28;20025;-72
2023/02/14 03:29:03;;;;;;;101.90;35.08;;;5.00;99.90;;;;;;5061004;28;20033;-71
2023/02/14 03:31:45;;;;;;;95.40;34.55;;;5.00;99.90;;;;;;5061358;28;20048;-74
2023/02/14 03:34:22;;;;;;;106.13;36.83;;;5.00;99.90;;;;;;5061027;28;20088;-73
2023/02/14 03:36:57;;;;;;;100.25;34.95;;;5.00;99.90;;;;;;5062088;28;20053;-73
2023/02/14 03:39:38;;;;;;;107.35;35.72;;;5.10;99.90;;;;;;5060963;28;20028;-73
2023/02/14 03:42:13;;;;;;;95.55;35.97;;;4.90;99.90;;;;;;5062255;28;20029;-73
2023/02/14 03:44:41;;;;;;;97.35;35.50;;;4.90;99.90;;;;;;5062582;28;20117;-74
2023/02/14 03:47:10;;;;;;;101.43;36.28;;;4.80;99.90;;;;;;5060854;28;20029;-74
2023/02/14 03:49:40;;;;;;;86.88;32.20;;;4.80;99.90;;;;;;5060902;28;20033;-74
2023/02/14 03:52:08;;;;;;;95.70;33.97;;;4.70;99.90;;;;;;5061171;28;20033;-74
2023/02/14 03:54:35;;;;;;;92.30;33.40;;;4.70;99.90;;;;;;5060885;28;20436;-73
2023/02/14 03:57:29;;;;;;;92.25;33.47;;;4.60;99.90;;;;;;5061716;28;20044;-74
2023/02/14 03:59:55;;;;;;;96.97;34.33;;;4.50;99.90;;;;;;5056058;28;20037;-73
2023/02/14 04:02:45;;;;;;;88.10;33.20;;;4.50;99.90;;;;;;5061858;28;20029;-74
2023/02/14 04:05:25;;;;;;;81.72;32.50;;;4.50;99.90;;;;;;5061125;28;20037;-74
2023/02/14 04:07:55;;;;;;;85.97;32.40;;;4.40;99.90;;;;;;5060787;28;20088;-74
2023/02/14 04:10:22;;;;;;;90.18;32.95;;;4.40;99.90;;;;;;5061747;28;20040;-73
2023/02/14 04:12:48;;;;;;;87.60;32.40;;;4.40;99.90;;;;;;5061721;28;20032;-74
2023/02/14 04:15:14;;;;;;;87.88;32.17;;;4.30;99.90;;;;;;5062331;28;20021;-74
2023/02/14 04:20:24;;;;;;;90.63;32.55;;;4.30;99.90;;;;;;5061758;28;20505;-73
2023/02/14 04:22:50;;;;;;;91.38;33.42;;;4.30;99.90;;;;;;5059832;28;20048;-75
2023/02/14 04:25:16;;;;;;;93.10;33.13;;;4.20;99.90;;;;;;5060414;28;20067;-74
2023/02/14 04:27:42;;;;;;;95.53;33.72;;;4.20;99.90;;;;;;5061638;28;20032;-74
2023/02/14 04:30:09;;;;;;;92.68;33.78;;;4.20;99.90;;;;;;5060373;28;20033;-74
2023/02/14 04:32:34;;;;;;;104.90;36.30;;;4.20;99.90;;;;;;5060341;28;20025;-74
2023/02/14 04:35:00;;;;;;;96.78;34.80;;;4.20;99.90;;;;;;5061450;28;20036;-75
2023/02/14 04:37:25;;;;;;;95.72;35.47;;;4.20;99.90;;;;;;5061268;28;20064;-75
2023/02/14 04:39:51;;;;;;;114.38;38.78;;;4.20;99.90;;;;;;5061218;28;20386;-75
2023/02/14 04:42:16;;;;;;;116.65;40.20;;;4.20;99.90;;;;;;5061317;28;20055;-75
2023/02/14 04:44:42;;;;;;;108.35;36.97;;;4.30;99.90;;;;;;5060017;28;20039;-74
2023/02/14 04:47:08;;;;;;;105.90;36.42;;;4.20;99.90;;;;;;5059982;28;20024;-74
2023/02/14 04:49:34;;;;;;;114.35;38.25;;;4.20;99.90;;;;;;5061324;28;20025;-75
2023/02/14 04:52:00;;;;;;;124.93;39.95;;;4.20;99.90;;;;;;5059106;28;20017;-74
2023/02/14 04:54:25;;;;;;;114.88;39.22;;;4.30;99.90;;;;;;5060843;28;20777;-73
2023/02/14 04:56:51;;;;;;;121.20;37.65;;;4.30;99.90;;;;;;5059712;28;20079;-75
2023/02/14 04:59:17;;;;;;;116.32;36.60;;;4.20;99.90;;;;;;5059534;28;20040;-75
2023/02/14 05:01:43;;;;;;;122.53;38.40;;;4.20;99.90;;;;;;5061118;28;20355;-75
2023/02/14 05:04:09;;;;;;;117.10;38.05;;;4.20;99.90;;;;;;5060780;28;20037;-75
2023/02/14 05:06:35;;;;;;;106.97;37.40;;;4.20;99.90;;;;;;5060718;28;20035;-74
2023/02/14 05:09:01;;;;;;;102.95;33.45;;;4.20;99.90;;;;;;5060020;28;20025;-74
2023/02/14 05:11:27;;;;;;;103.78;33.75;;;4.10;99.90;;;;;;5059422;28;20024;-74
2023/02/14 05:13:53;;;;;;;105.82;35.40;;;4.10;99.90;;;;;;5060840;28;20053;-73
2023/02/14 05:16:19;;;;;;;98.65;33.80;;;4.10;99.90;;;;;;5060255;28;20025;-75
2023/02/14 05:18:45;;;;;;;98.72;35.03;;;4.10;99.90;;;;;;5059283;28;20082;-74
2023/02/14 05:21:10;;;;;;;95.10;33.15;;;4.10;99.90;;;;;;5059185;28;20025;-75
2023/02/14 05:23:36;;;;;;;105.00;35.47;;;4.10;99.90;;;;;;5060563;28;20108;-74
2023/02/14 05:26:02;;;;;;;103.20;36.60;;;4.00;99.90;;;;;;5060459;28;20025;-74
2023/02/14 05:28:29;;;;;;;199.88;35.55;;;4.00;99.90;;;;;;5059215;28;20108;-74
2023/02/14 05:30:55;;;;;;;172.13;35.85;;;4.00;99.90;;;;;;5060408;28;20033;-74
2023/02/14 05:33:21;;;;;;;119.57;34.40;;;4.00;99.90;;;;;;5060460;28;20092;-73
2023/02/14 05:35:47;;;;;;;96.45;33.53;;;4.10;99.90;;;;;;5059802;28;20052;-76
2023/02/14 05:38:13;;;;;;;95.65;33.85;;;4.00;99.90;;;;;;5059044;28;20029;-75
2023/02/14 05:40:40;;;;;;;103.60;35.30;;;3.90;99.90;;;;;;5060295;28;20017;-72
2023/02/14 05:43:05;;;;;;;109.13;35.10;;;3.90;99.90;;;;;;5059767;28;20048;-74
2023/02/14 05:45:31;;;;;;;93.65;33.03;;;3.90;99.90;;;;;;5058930;28;20018;-73
2023/02/14 05:47:57;;;;;;;88.75;32.55;;;3.90;99.90;;;;;;5058715;28;20017;-73
2023/02/14 05:50:22;;;;;;;126.13;33.72;;;3.80;99.90;;;;;;5058599;28;20032;-74
2023/02/14 05:52:48;;;;;;;158.32;33.53;;;3.80;99.90;;;;;;5059628;28;20029;-72
2023/02/14 05:55:14;;;;;;;119.63;29.80;;;3.70;99.90;;;;;;5060083;28;20117;-74
2023/02/14 05:57:40;;;;;;;114.80;29.95;;;3.70;99.90;;;;;;5060161;28;20058;-75
2023/02/14 06:00:07;;;;;;;240.45;28.95;;;3.70;99.90;;;;;;5058766;28;20033;-73
2023/02/14 06:02:32;;;;;;;117.63;28.60;;;3.70;99.90;;;;;;5059291;28;20096;-73
2023/02/14 06:04:58;;;;;;;74.65;25.65;;;3.60;99.90;;;;;;5058467;28;20068;-74
2023/02/14 06:07:24;;;;;;;90.30;26.63;;;3.60;99.90;;;;;;5058410;28;20029;-73
2023/02/14 06:09:49;;;;;;;77.72;24.80;;;3.60;99.90;;;;;;5059631;28;20018;-73
2023/02/14 06:12:15;;;;;;;69.75;24.13;;;3.60;99.90;;;;;;5058729;28;20033;-73
2023/02/14 06:14:41;;;;;;;70.07;23.98;;;3.60;99.90;;;;;;5058032;28;20021;-74
2023/02/14 06:17:08;;;;;;;71.60;24.55;;;3.60;99.90;;;;;;5058540;28;20028;-73
2023/02/14 06:19:33;;;;;;;80.82;24.02;;;3.50;99.90;;;;;;5059638;28;20029;-73
2023/02/14 06:21:59;;;;;;;76.88;25.13;;;3.60;99.90;;;;;;5058741;28;20025;-74
2023/02/14 06:24:25;;;;;;;189.25;26.80;;;3.50;99.90;;;;;;5060373;28;20402;-74
2023/02/14 06:26:50;;;;;;;67.32;23.77;;;3.50;99.90;;;;;;5059362;28;20064;-74
2023/02/14 06:29:16;;;;;;;62.35;24.35;;;3.50;99.90;;;;;;5059428;28;20021;-73
2023/02/14 06:31:42;;;;;;;128.88;30.92;;;3.50;99.90;;;;;;5060750;28;20099;-74
2023/02/14 06:34:08;;;;;;;90.28;28.63;;;3.50;99.90;;;;;;5059960;28;20025;-74
2023/02/14 06:36:33;;;;;;;93.85;29.52;;;3.50;99.90;;;;;;5060767;28;20036;-72
2023/02/14 06:38:59;;;;;;;68.50;25.63;;;3.50;99.90;;;;;;5060489;28;20035;-72
2023/02/14 06:41:25;;;;;;;60.83;25.45;;;3.50;99.90;;;;;;5056270;28;20025;-73
2023/02/14 06:43:50;;;;;;;64.45;25.75;;;3.50;99.90;;;;;;5056672;28;20056;-72
2023/02/14 06:46:17;;;;;;;65.20;24.83;;;3.50;99.90;;;;;;5057710;28;20037;-74
2023/02/14 06:48:43;;;;;;;66.65;23.95;;;3.50;99.90;;;;;;5058546;28;20033;-72
2023/02/14 06:51:09;;;;;;;64.57;24.65;;;3.50;99.90;;;;;;5057270;28;20029;-72
2023/02/14 06:53:35;;;;;;;154.65;26.90;;;3.50;99.90;;;;;;5058116;28;20112;-72
2023/02/14 06:56:01;;;;;;;60.08;24.02;;;3.50;99.90;;;;;;5059371;28;20021;-71
2023/02/14 06:58:27;;;;;;;65.70;24.10;;;3.50;99.90;;;;;;5058202;28;20111;-73
2023/02/14 07:00:57;;;;;;;94.70;24.70;;;3.50;99.90;;;;;;5052948;28;20047;-71
2023/02/14 07:03:24;;;;;;;64.30;24.30;;;3.50;99.90;;;;;;5053157;28;20044;-72
2023/02/14 07:05:50;;;;;;;62.17;22.90;;;3.50;99.90;;;;;;5055787;28;20129;-72
2023/02/14 07:08:16;;;;;;;66.90;22.67;;;3.60;99.90;;;;;;5057081;28;20127;-71
2023/02/14 07:10:42;;;;;;;62.45;23.42;;;3.50;99.90;;;;;;5058944;28;20027;-74
2023/02/14 07:13:07;;;;;;;64.22;22.42;;;3.50;99.90;;;;;;5057587;28;20135;-72
2023/02/14 07:15:33;;;;;;;67.03;23.52;;;3.50;99.90;;;;;;5056456;28;20036;-70
2023/02/14 07:17:59;;;;;;;56.67;22.35;;;3.50;99.90;;;;;;5057706;28;20029;-71
2023/02/14 07:20:24;;;;;;;55.60;23.20;;;3.60;99.90;;;;;;5056449;28;20033;-72
2023/02/14 07:22:50;;;;;;;63.03;23.25;;;3.60;99.90;;;;;;5059647;28;20063;-72
2023/02/14 07:25:16;;;;;;;60.60;23.77;;;3.60;99.90;;;;;;5059399;28;20123;-73
2023/02/14 07:27:42;;;;;;;67.75;23.85;;;3.60;99.90;;;;;;5058167;28;20025;-72
2023/02/14 07:30:09;;;;;;;67.80;24.35;;;3.70;99.90;;;;;;5059592;28;20048;-71
2023/02/14 07:32:36;;;;;;;67.18;25.63;;;3.90;99.90;;;;;;5063175;28;20196;-72
2023/02/14 07:35:02;;;;;;;66.50;24.20;;;4.00;99.90;;;;;;5061201;28;20523;-73
2023/02/14 07:37:28;;;;;;;66.68;24.50;;;4.10;99.90;;;;;;5063147;28;20080;-72
2023/02/14 07:39:53;;;;;;;59.30;24.35;;;4.30;99.90;;;;;;5061804;28;20036;-74
2023/02/14 07:42:19;;;;;;;61.05;25.60;;;4.40;99.90;;;;;;5061863;28;20029;-74
2023/02/14 07:44:45;;;;;;;58.42;24.55;;;4.60;99.90;;;;;;5063027;28;20048;-73
2023/02/14 07:47:11;;;;;;;63.45;24.80;;;4.70;99.90;;;;;;5061811;28;20726;-74
2023/02/14 07:49:36;;;;;;;58.13;22.98;;;4.80;99.90;;;;;;5061549;28;20052;-71
2023/02/14 07:52:03;;;;;;;57.53;23.95;;;4.90;99.90;;;;;;5058262;28;20036;-71
2023/02/14 07:54:29;;;;;;;58.75;24.25;;;5.10;99.90;;;;;;5061382;28;20056;-71
2023/02/14 07:56:55;;;;;;;60.45;24.90;;;5.20;99.90;;;;;;5061844;28;20522;-73
2023/02/14 07:59:20;;;;;;;53.92;24.30;;;5.20;99.90;;;;;;5061754;28;20021;-73
2023/02/14 08:01:46;;;;;;;59.05;24.83;;;5.30;99.90;;;;;;5062945;28;20466;-71
2023/02/14 08:04:14;;;;;;;53.28;22.38;;;5.30;99.90;;;;;;5061391;28;20037;-73
2023/02/14 08:06:41;;;;;;;55.08;24.02;;;5.50;99.90;;;;;;5060802;28;20018;-72
2023/02/14 08:09:23;;;;;;;46.35;21.77;;;5.50;99.90;;;;;;5062884;28;20100;-72
2023/02/14 08:14:33;;;;;;;54.72;22.77;;;5.80;99.90;;;;;;5062783;28;20032;-72
2023/02/14 08:16:59;;;;;;;47.08;21.25;;;6.00;99.90;;;;;;5060105;28;20029;-73
2023/02/14 08:19:24;;;;;;;51.42;22.48;;;6.10;99.90;;;;;;5062685;28;20040;-72
2023/02/14 08:21:50;;;;;;;47.85;21.05;;;6.10;99.90;;;;;;5062776;28;20496;-71
2023/02/14 08:24:15;;;;;;;49.70;21.92;;;6.30;99.90;;;;;;5060834;28;20048;-71
2023/02/14 08:26:41;;;;;;;50.13;22.17;;;6.50;99.90;;;;;;5062449;28;20086;-73
2023/02/14 08:29:06;;;;;;;42.60;19.65;;;6.70;99.90;;;;;;5062672;28;20134;-73
2023/02/14 08:31:32;;;;;;;45.63;21.10;;;6.80;99.90;;;;;;5058979;28;20056;-72
2023/02/14 08:33:57;;;;;;;41.65;19.77;;;7.10;99.90;;;;;;5062320;28;20052;-71
2023/02/14 08:36:23;;;;;;;48.88;21.08;;;7.20;99.90;;;;;;5062278;28;20021;-72
2023/02/14 08:38:48;;;;;;;43.38;19.23;;;7.50;99.90;;;;;;5060325;28;20393;-72
2023/02/14 08:41:15;;;;;;;45.95;20.00;;;7.70;99.90;;;;;;5062454;28;20056;-72
2023/02/14 08:43:42;;;;;;;46.70;20.38;;;7.90;99.90;;;;;;5057129;28;20045;-72
2023/02/14 08:46:07;;;;;;;37.63;18.52;;;8.00;99.90;;;;;;5056756;28;20040;-72
2023/02/14 08:48:34;;;;;;;38.65;19.00;;;8.30;99.90;;;;;;5062220;28;20049;-74
2023/02/14 08:51:05;;;;;;;41.90;20.27;;;8.40;99.90;;;;;;5061988;28;20361;-73
2023/02/14 08:53:30;;;;;;;41.63;19.52;;;8.50;99.90;;;;;;5060500;28;20035;-73
2023/02/14 08:56:01;;;;;;;40.42;19.48;;;8.70;99.90;;;;;;5061817;28;20120;-73
2023/02/14 08:58:27;;;;;;;39.33;17.38;;;8.60;99.90;;;;;;5061666;28;20083;-72
2023/02/14 09:00:54;;;;;;;38.30;18.85;;;8.40;99.90;;;;;;5061849;28;20025;-73
2023/02/14 09:03:20;;;;;;;41.10;19.25;;;8.30;99.90;;;;;;5060599;28;20441;-74
2023/02/14 09:05:45;;;;;;;40.33;18.73;;;8.30;99.90;;;;;;5060783;28;20029;-73
2023/02/14 09:08:11;;;;;;;41.83;19.25;;;8.50;99.90;;;;;;5062259;28;20017;-74
2023/02/14 09:10:37;;;;;;;42.03;18.92;;;8.50;99.90;;;;;;5058989;28;20017;-73
2023/02/14 09:13:02;;;;;;;38.85;19.92;;;8.60;99.90;;;;;;5061588;28;20059;-73
2023/02/14 09:15:28;;;;;;;40.85;19.65;;;8.70;99.90;;;;;;5061058;28;20064;-73
2023/02/14 09:17:54;;;;;;;41.25;19.10;;;8.80;99.90;;;;;;5051135;28;20029;-73
2023/02/14 09:20:19;;;;;;;39.10;18.55;;;9.00;99.90;;;;;;5058668;28;20040;-73
2023/02/14 09:22:45;;;;;;;40.13;19.38;;;9.20;99.90;;;;;;5056580;28;20041;-74
2023/02/14 09:25:11;;;;;;;39.00;18.73;;;9.40;99.90;;;;;;5056849;28;20029;-73
2023/02/14 09:27:37;;;;;;;43.78;20.08;;;9.40;99.90;;;;;;5059757;28;20024;-73
2023/02/14 09:30:04;;;;;;;44.45;19.48;;;9.30;99.90;;;;;;5061070;28;20033;-72
2023/02/14 09:32:30;;;;;;;39.47;18.80;;;9.30;99.90;;;;;;5059199;28;20033;-71
2023/02/14 09:37:40;;;;;;;37.35;18.83;;;9.10;99.90;;;;;;5060646;28;20063;-73
2023/02/14 09:40:06;;;;;;;42.38;19.65;;;9.10;99.90;;;;;;5060874;28;20029;-73
2023/02/14 09:42:38;;;;;;;42.08;20.60;;;9.10;99.90;;;;;;5059703;28;20112;-72
2023/02/14 09:45:25;;;;;;;42.92;19.98;;;8.90;99.90;;;;;;5057661;28;20041;-75
2023/02/14 09:48:06;;;;;;;43.08;20.08;;;9.00;99.90;;;;;;5059419;28;20056;-74
2023/02/14 09:50:48;;;;;;;44.92;20.02;;;9.10;99.90;;;;;;5058989;28;20035;-73
2023/02/14 09:53:13;;;;;;;44.40;20.17;;;9.30;99.90;;;;;;5059973;28;20457;-74
2023/02/14 09:55:48;;;;;;;42.63;20.50;;;9.40;99.90;;;;;;5059137;28;20032;-72
2023/02/14 09:58:46;;;;;;;;;;;9.50;99.90;;;;;;5061366;28;20045;-73
2023/02/14 10:01:14;;;;;;;38.42;18.83;;;9.70;99.90;;;;;;5045448;28;19958;-73
2023/02/14 10:04:15;;;;;;;42.70;20.75;;;9.90;99.90;;;;;;5060043;28;20037;-74
2023/02/14 10:07:00;;;;;;;43.67;20.63;;;10.00;99.90;;;;;;5051146;28;20084;-73
2023/02/14 10:09:45;;;;;;;41.65;21.23;;;10.10;99.90;;;;;;5060149;28;20028;-73
2023/02/14 10:12:20;;;;;;;42.35;20.80;;;10.30;99.90;;;;;;5061563;28;20040;-73
2023/02/14 10:14:47;;;;;;;44.25;21.23;;;10.50;99.90;;;;;;5058417;28;20029;-73
2023/02/14 10:17:20;;;;;;;39.10;20.23;;;10.80;99.90;;;;;;5059094;28;20025;-73
2023/02/14 10:19:52;;;;;;;38.10;19.90;;;10.90;99.90;;;;;;5059810;28;20025;-74
2023/02/14 10:22:23;;;;;;;42.13;21.50;;;11.20;99.90;;;;;;5059601;28;20029;-72
2023/02/14 10:25:12;;;;;;;39.70;20.92;;;11.40;99.90;;;;;;5059894;28;20053;-73
2023/02/14 10:27:43;;;;;;;39.55;20.63;;;11.50;99.90;;;;;;5060402;28;20033;-73
2023/02/14 10:30:22;;;;;;;41.00;20.98;;;11.80;99.90;;;;;;5058652;28;20040;-75
2023/02/14 10:33:15;;;;;;;40.53;20.75;;;11.90;99.90;;;;;;5057966;28;20037;-75
2023/02/14 10:35:47;;;;;;;42.47;20.45;;;11.90;99.90;;;;;;5057316;28;20025;-73
2023/02/14 10:38:47;;;;;;;39.83;20.13;;;11.80;99.90;;;;;;5056804;28;20060;-73
2023/02/14 10:41:25;;;;;;;41.45;21.10;;;11.90;99.90;;;;;;5058648;28;20048;-72
2023/02/14 10:44:04;;;;;;;43.53;20.75;;;12.10;99.90;;;;;;5055041;28;20029;-74
2023/02/14 10:46:45;;;;;;;41.22;21.83;;;12.20;99.90;;;;;;5057433;28;20037;-73
2023/02/14 10:49:43;;;;;;;41.22;21.02;;;12.20;99.90;;;;;;5057608;28;20358;-74
2023/02/14 10:52:46;;;;;;;37.17;21.02;;;12.50;99.90;;;;;;5053958;28;20124;-73
2023/02/14 10:55:38;;;;;;;42.88;21.35;;;12.90;99.90;;;;;;5056119;28;20076;-73
2023/02/14 10:58:05;;;;;;;41.50;21.40;;;13.30;99.90;;;;;;5057951;28;20039;-73
2023/02/14 11:00:38;;;;;;;38.30;21.30;;;13.60;99.90;;;;;;5058799;28;20453;-73
2023/02/14 11:03:08;;;;;;;40.67;20.38;;;13.80;99.90;;;;;;5053353;28;20144;-72
2023/02/14 11:05:44;;;;;;;39.17;20.98;;;13.90;99.90;;;;;;5054413;28;20024;-74
2023/02/14 11:08:37;;;;;;;45.08;21.50;;;13.90;99.90;;;;;;5062922;28;20041;-74
2023/02/14 11:11:30;;;;;;;38.30;21.48;;;14.00;99.90;;;;;;5061304;28;20032;-73
2023/02/14 11:13:56;;;;;;;40.50;20.98;;;14.10;99.90;;;;;;5061389;28;20048;-72
2023/02/14 11:16:31;;;;;;;38.03;21.52;;;14.10;99.90;;;;;;5058449;28;20025;-73
2023/02/14 11:19:17;;;;;;;41.40;22.48;;;14.30;99.90;;;;;;5063247;28;20029;-74
2023/02/14 11:21:45;;;;;;;35.60;20.33;;;14.40;99.90;;;;;;5059103;28;20028;-72
2023/02/14 11:24:31;;;;;;;41.72;21.67;;;14.70;99.90;;;;;;5059303;28;20059;-75
2023/02/14 11:27:01;;;;;;;38.47;21.88;;;14.80;99.90;;;;;;5060813;28;20033;-73
2023/02/14 11:29:37;;;;;;;37.97;21.45;;;15.00;99.90;;;;;;5061513;28;20030;-73
2023/02/14 11:32:27;;;;;;;36.95;22.38;;;15.40;99.90;;;;;;5060959;28;20044;-73
2023/02/14 11:35:01;;;;;;;38.45;19.98;;;15.70;99.90;;;;;;5060275;28;20043;-72
2023/02/14 11:37:28;;;;;;;;;;;16.20;99.90;;;;;;5059850;28;20028;-73
2023/02/14 11:39:58;;;;;;;38.05;20.95;;;16.30;99.90;;;;;;5060868;28;19975;-70
2023/02/14 11:42:39;;;;;;;38.97;20.65;;;16.60;99.90;;;;;;5062513;28;20032;-73
2023/02/14 11:45:05;;;;;;;37.22;20.92;;;17.20;99.90;;;;;;5060807;28;20063;-70
2023/02/14 11:47:36;;;;;;;34.85;20.42;;;17.40;99.90;;;;;;5063080;28;20029;-71
2023/02/14 11:50:19;;;;;;;35.40;20.20;;;17.50;99.90;;;;;;5059405;28;20067;-72
2023/02/14 11:52:51;;;;;;;31.05;19.80;;;17.70;99.90;;;;;;5061062;28;20017;-72
2023/02/14 11:55:26;;;;;;;34.40;19.90;;;17.90;99.90;;;;;;5059779;28;20029;-73
2023/02/14 11:57:53;;;;;;;34.58;20.33;;;18.20;99.90;;;;;;5060811;28;20079;-71
2023/02/14 12:00:20;;;;;;;33.42;19.17;;;18.30;99.90;;;;;;5061400;28;20406;-71
2023/02/14 12:02:49;;;;;;;39.55;24.38;;;18.60;99.90;;;;;;5058817;28;20055;-73
2023/02/14 12:05:29;;;;;;;32.42;19.83;;;18.90;99.90;;;;;;5061316;28;20041;-71
2023/02/14 12:07:58;;;;;;;32.03;20.08;;;19.10;99.90;;;;;;5062095;28;20029;-72
2023/02/14 12:10:27;;;;;;;34.53;21.50;;;19.20;99.90;;;;;;5059730;28;20031;-70
2023/02/14 12:13:07;;;;;;;34.60;20.50;;;19.40;99.90;;;;;;5059131;28;20029;-71
2023/02/14 12:15:51;;;;;;;34.20;19.65;;;19.30;99.90;;;;;;5059627;28;20055;-72
2023/02/14 12:18:35;;;;;;;33.13;20.23;;;19.40;99.90;;;;;;5059375;28;20029;-72
2023/02/14 12:21:35;;;;;;;27.55;18.65;;;19.60;99.90;;;;;;5058471;28;20394;-73
2023/02/14 12:24:15;;;;;;;34.40;20.83;;;19.60;99.90;;;;;;5057811;28;20067;-72
2023/02/14 12:27:09;;;;;;;32.30;19.35;;;19.80;99.90;;;;;;5057061;28;20028;-71
2023/02/14 12:29:49;;;;;;;33.97;21.07;;;20.00;99.90;;;;;;5058711;28;20033;-72
2023/02/14 12:32:26;;;;;;;34.17;19.83;;;20.10;99.90;;;;;;5059185;28;20607;-72
2023/02/14 12:35:16;;;;;;;36.47;19.85;;;20.00;99.90;;;;;;5058884;28;20567;-71
2023/02/14 12:38:08;;;;;;;30.60;18.75;;;20.20;99.90;;;;;;5054689;28;20033;-72
2023/02/14 12:41:02;;;;;;;30.33;18.77;;;20.50;99.90;;;;;;5059696;28;20029;-70
2023/02/14 12:43:53;;;;;;;28.67;17.85;;;20.50;99.90;;;;;;5055604;28;20029;-71
2023/02/14 12:46:46;;;;;;;30.65;19.88;;;20.50;99.90;;;;;;5060765;28;20033;-74
2023/02/14 12:49:27;;;;;;;30.50;18.92;;;20.40;99.90;;;;;;5060145;28;20025;-73
2023/02/14 12:52:07;;;;;;;29.15;18.33;;;20.30;99.90;;;;;;5061458;28;20025;-71
2023/02/14 12:55:10;;;;;;;28.85;19.05;;;20.50;99.90;;;;;;5060509;28;20044;-73
2023/02/14 12:58:11;;;;;;;30.55;18.80;;;20.60;99.90;;;;;;5043305;28;20029;-74
2023/02/14 13:00:45;;;;;;;30.50;19.00;;;20.80;99.90;;;;;;5040876;28;21166;-71
2023/02/14 13:03:50;;;;;;;27.35;18.15;;;20.80;99.90;;;;;;5059574;28;20052;-72
2023/02/14 13:06:33;;;;;;;30.35;17.92;;;20.90;99.90;;;;;;5029794;28;20064;-72
2023/02/14 13:09:07;;;;;;;28.25;18.20;;;20.90;99.90;;;;;;5062111;28;20036;-73
2023/02/14 13:11:51;;;;;;;27.40;16.95;;;21.00;99.90;;;;;;5061766;28;20059;-73
2023/02/14 13:14:26;;;;;;;;;;;21.10;99.90;;;;;;5061331;28;20029;-74
2023/02/14 13:17:15;;;;;;;25.90;16.13;;;21.00;99.90;;;;;;5061021;28;19904;-72
2023/02/14 13:20:04;;;;;;;27.23;16.52;;;20.90;99.90;;;;;;5061644;28;20462;-73
2023/02/14 13:22:32;;;;;;;28.60;18.05;;;20.90;99.90;;;;;;5059661;28;20170;-71